sensor_id;sensor_type;location;lat;lon;timestamp;P1;durP1;ratioP1;P2;durP2;ratioP2
54897;SDS011;40800;52.704;6.398;2024-03-23T00:52:58;31.00;;;14.57;;
54897;SDS011;40800;52.704;6.398;2024-03-23T00:55:24;35.55;;;14.73;;
54897;SDS011;40800;52.704;6.398;2024-03-23T00:57:50;32.38;;;15.00;;
54897;SDS011;40800;52.704;6.398;2024-03-23T01:00:15;34.85;;;14.93;;
54897;SDS011;40800;52.704;6.398;2024-03-23T01:02:41;34.13;;;14.85;;
54897;SDS011;40800;52.704;6.398;2024-03-23T01:05:06;34.20;;;14.35;;
54897;SDS011;40800;52.704;6.398;2024-03-23T01:07:32;36.47;;;15.13;;
54897;SDS011;40800;52.704;6.398;2024-03-23T01:09:58;31.73;;;15.07;;
54897;SDS011;40800;52.704;6.398;2024-03-23T01:12:23;37.03;;;15.23;;
54897;SDS011;40800;52.704;6.398;2024-03-23T01:14:49;31.92;;;14.57;;
54897;SDS011;40800;52.704;6.398;2024-03-23T01:17:14;32.67;;;14.43;;
54897;SDS011;40800;52.704;6.398;2024-03-23T01:19:40;33.13;;;15.32;;
54897;SDS011;40800;52.704;6.398;2024-03-23T01:22:06;33.45;;;15.07;;
54897;SDS011;40800;52.704;6.398;2024-03-23T01:24:32;29.13;;;14.55;;
54897;SDS011;40800;52.704;6.398;2024-03-23T01:26:58;33.28;;;14.70;;
54897;SDS011;40800;52.704;6.398;2024-03-23T01:29:23;33.03;;;15.63;;
54897;SDS011;40800;52.704;6.398;2024-03-23T01:31:49;28.80;;;14.35;;
54897;SDS011;40800;52.704;6.398;2024-03-23T01:34:14;33.85;;;14.70;;
54897;SDS011;40800;52.704;6.398;2024-03-23T01:36:40;30.05;;;15.00;;
54897;SDS011;40800;52.704;6.398;2024-03-23T01:39:05;30.75;;;14.55;;
54897;SDS011;40800;52.704;6.398;2024-03-23T01:41:34;31.15;;;14.52;;
54897;SDS011;40800;52.704;6.398;2024-03-23T01:44:01;29.17;;;13.80;;
54897;SDS011;40800;52.704;6.398;2024-03-23T01:46:30;36.40;;;14.77;;
54897;SDS011;40800;52.704;6.398;2024-03-23T01:48:56;28.88;;;13.82;;
54897;SDS011;40800;52.704;6.398;2024-03-23T01:51:22;29.30;;;14.82;;
54897;SDS011;40800;52.704;6.398;2024-03-23T01:53:48;30.67;;;14.50;;
54897;SDS011;40800;52.704;6.398;2024-03-23T01:56:14;34.25;;;15.05;;
54897;SDS011;40800;52.704;6.398;2024-03-23T01:58:40;29.58;;;14.60;;
54897;SDS011;40800;52.704;6.398;2024-03-23T02:01:06;30.55;;;14.38;;
54897;SDS011;40800;52.704;6.398;2024-03-23T02:03:31;28.70;;;14.02;;
54897;SDS011;40800;52.704;6.398;2024-03-23T02:05:57;27.50;;;13.98;;
54897;SDS011;40800;52.704;6.398;2024-03-23T02:08:23;28.45;;;14.25;;
54897;SDS011;40800;52.704;6.398;2024-03-23T02:10:49;24.70;;;13.85;;
54897;SDS011;40800;52.704;6.398;2024-03-23T02:13:16;29.05;;;14.25;;
54897;SDS011;40800;52.704;6.398;2024-03-23T02:15:43;31.35;;;14.00;;
54897;SDS011;40800;52.704;6.398;2024-03-23T02:18:09;30.98;;;14.50;;
54897;SDS011;40800;52.704;6.398;2024-03-23T02:20:36;26.40;;;14.37;;
54897;SDS011;40800;52.704;6.398;2024-03-23T02:23:02;26.53;;;13.70;;
54897;SDS011;40800;52.704;6.398;2024-03-23T02:25:28;26.60;;;14.00;;
54897;SDS011;40800;52.704;6.398;2024-03-23T02:27:54;33.55;;;13.85;;
54897;SDS011;40800;52.704;6.398;2024-03-23T02:30:20;30.63;;;13.40;;
54897;SDS011;40800;52.704;6.398;2024-03-23T02:32:46;34.20;;;14.25;;
54897;SDS011;40800;52.704;6.398;2024-03-23T02:35:11;30.48;;;14.27;;
54897;SDS011;40800;52.704;6.398;2024-03-23T02:37:37;26.17;;;14.48;;
54897;SDS011;40800;52.704;6.398;2024-03-23T02:40:03;31.10;;;14.60;;
54897;SDS011;40800;52.704;6.398;2024-03-23T02:42:28;31.42;;;14.45;;
54897;SDS011;40800;52.704;6.398;2024-03-23T02:44:54;31.98;;;15.00;;
54897;SDS011;40800;52.704;6.398;2024-03-23T02:47:20;30.20;;;13.65;;
54897;SDS011;40800;52.704;6.398;2024-03-23T02:49:45;31.52;;;14.68;;
54897;SDS011;40800;52.704;6.398;2024-03-23T02:52:11;29.05;;;14.70;;
54897;SDS011;40800;52.704;6.398;2024-03-23T02:54:36;34.17;;;15.05;;
54897;SDS011;40800;52.704;6.398;2024-03-23T02:57:02;34.97;;;15.05;;
54897;SDS011;40800;52.704;6.398;2024-03-23T02:59:28;34.90;;;15.35;;
54897;SDS011;40800;52.704;6.398;2024-03-23T03:01:53;32.45;;;15.20;;
54897;SDS011;40800;52.704;6.398;2024-03-23T03:04:19;33.58;;;15.27;;
54897;SDS011;40800;52.704;6.398;2024-03-23T03:06:46;30.55;;;14.70;;
54897;SDS011;40800;52.704;6.398;2024-03-23T03:09:12;35.42;;;15.00;;
54897;SDS011;40800;52.704;6.398;2024-03-23T03:11:38;29.45;;;14.77;;
54897;SDS011;40800;52.704;6.398;2024-03-23T03:14:03;30.63;;;14.95;;
54897;SDS011;40800;52.704;6.398;2024-03-23T03:16:29;26.52;;;14.23;;
54897;SDS011;40800;52.704;6.398;2024-03-23T03:18:55;30.23;;;14.63;;
54897;SDS011;40800;52.704;6.398;2024-03-23T03:21:34;30.80;;;14.98;;
54897;SDS011;40800;52.704;6.398;2024-03-23T03:23:59;27.25;;;14.25;;
54897;SDS011;40800;52.704;6.398;2024-03-23T03:26:25;30.67;;;14.48;;
54897;SDS011;40800;52.704;6.398;2024-03-23T03:28:51;29.58;;;14.93;;
54897;SDS011;40800;52.704;6.398;2024-03-23T03:31:16;28.02;;;15.10;;
54897;SDS011;40800;52.704;6.398;2024-03-23T03:33:43;35.80;;;15.70;;
54897;SDS011;40800;52.704;6.398;2024-03-23T03:36:09;29.98;;;14.98;;
54897;SDS011;40800;52.704;6.398;2024-03-23T03:38:35;30.67;;;15.25;;
54897;SDS011;40800;52.704;6.398;2024-03-23T03:41:01;28.42;;;14.75;;
54897;SDS011;40800;52.704;6.398;2024-03-23T03:43:27;26.43;;;14.90;;
54897;SDS011;40800;52.704;6.398;2024-03-23T03:45:56;27.35;;;14.40;;
54897;SDS011;40800;52.704;6.398;2024-03-23T03:48:23;29.50;;;15.00;;
54897;SDS011;40800;52.704;6.398;2024-03-23T03:50:49;32.03;;;14.95;;
54897;SDS011;40800;52.704;6.398;2024-03-23T03:53:14;28.42;;;15.25;;
54897;SDS011;40800;52.704;6.398;2024-03-23T03:55:40;26.80;;;14.30;;
54897;SDS011;40800;52.704;6.398;2024-03-23T03:58:06;32.17;;;15.07;;
54897;SDS011;40800;52.704;6.398;2024-03-23T04:00:31;29.38;;;14.30;;
54897;SDS011;40800;52.704;6.398;2024-03-23T04:02:57;27.98;;;14.13;;
54897;SDS011;40800;52.704;6.398;2024-03-23T04:05:23;30.05;;;14.70;;
54897;SDS011;40800;52.704;6.398;2024-03-23T04:07:49;29.35;;;14.30;;
54897;SDS011;40800;52.704;6.398;2024-03-23T04:10:14;25.05;;;14.40;;
54897;SDS011;40800;52.704;6.398;2024-03-23T04:12:40;32.22;;;14.27;;
54897;SDS011;40800;52.704;6.398;2024-03-23T04:15:06;28.70;;;14.50;;
54897;SDS011;40800;52.704;6.398;2024-03-23T04:17:33;28.08;;;14.90;;
54897;SDS011;40800;52.704;6.398;2024-03-23T04:19:59;31.75;;;14.00;;
54897;SDS011;40800;52.704;6.398;2024-03-23T04:22:25;25.67;;;13.80;;
54897;SDS011;40800;52.704;6.398;2024-03-23T04:24:54;24.23;;;14.10;;
54897;SDS011;40800;52.704;6.398;2024-03-23T04:27:23;24.45;;;14.23;;
54897;SDS011;40800;52.704;6.398;2024-03-23T04:29:49;28.73;;;14.88;;
54897;SDS011;40800;52.704;6.398;2024-03-23T04:32:15;25.65;;;14.80;;
54897;SDS011;40800;52.704;6.398;2024-03-23T04:34:41;27.63;;;14.05;;
54897;SDS011;40800;52.704;6.398;2024-03-23T04:37:08;28.77;;;14.65;;
54897;SDS011;40800;52.704;6.398;2024-03-23T04:39:35;28.83;;;14.27;;
54897;SDS011;40800;52.704;6.398;2024-03-23T04:42:02;27.10;;;14.00;;
54897;SDS011;40800;52.704;6.398;2024-03-23T04:44:28;24.00;;;13.43;;
54897;SDS011;40800;52.704;6.398;2024-03-23T04:46:53;28.08;;;13.73;;
54897;SDS011;40800;52.704;6.398;2024-03-23T04:49:19;26.38;;;13.65;;
54897;SDS011;40800;52.704;6.398;2024-03-23T04:51:45;25.55;;;13.30;;
54897;SDS011;40800;52.704;6.398;2024-03-23T04:54:13;24.35;;;13.27;;
54897;SDS011;40800;52.704;6.398;2024-03-23T04:56:39;27.05;;;13.63;;
54897;SDS011;40800;52.704;6.398;2024-03-23T04:59:04;24.38;;;13.38;;
54897;SDS011;40800;52.704;6.398;2024-03-23T05:01:31;22.48;;;13.23;;
54897;SDS011;40800;52.704;6.398;2024-03-23T05:03:57;20.98;;;13.35;;
54897;SDS011;40800;52.704;6.398;2024-03-23T05:06:23;24.08;;;13.10;;
54897;SDS011;40800;52.704;6.398;2024-03-23T05:08:49;26.57;;;13.30;;
54897;SDS011;40800;52.704;6.398;2024-03-23T05:11:15;24.95;;;13.43;;
54897;SDS011;40800;52.704;6.398;2024-03-23T05:13:41;26.77;;;13.90;;
54897;SDS011;40800;52.704;6.398;2024-03-23T05:16:07;23.33;;;13.77;;
54897;SDS011;40800;52.704;6.398;2024-03-23T05:18:33;25.70;;;13.00;;
54897;SDS011;40800;52.704;6.398;2024-03-23T05:20:59;25.52;;;13.23;;
54897;SDS011;40800;52.704;6.398;2024-03-23T05:23:25;27.92;;;12.85;;
54897;SDS011;40800;52.704;6.398;2024-03-23T05:25:51;29.88;;;13.82;;
54897;SDS011;40800;52.704;6.398;2024-03-23T05:28:17;20.98;;;13.20;;
54897;SDS011;40800;52.704;6.398;2024-03-23T05:30:43;22.80;;;13.97;;
54897;SDS011;40800;52.704;6.398;2024-03-23T05:33:09;23.75;;;13.00;;
54897;SDS011;40800;52.704;6.398;2024-03-23T05:35:34;28.42;;;13.10;;
54897;SDS011;40800;52.704;6.398;2024-03-23T05:38:00;23.73;;;13.80;;
54897;SDS011;40800;52.704;6.398;2024-03-23T05:40:26;20.38;;;12.27;;
54897;SDS011;40800;52.704;6.398;2024-03-23T05:42:52;26.93;;;14.03;;
54897;SDS011;40800;52.704;6.398;2024-03-23T05:45:18;21.77;;;12.95;;
54897;SDS011;40800;52.704;6.398;2024-03-23T05:47:44;23.55;;;13.65;;
54897;SDS011;40800;52.704;6.398;2024-03-23T05:50:10;27.10;;;13.95;;
54897;SDS011;40800;52.704;6.398;2024-03-23T05:52:38;22.80;;;13.13;;
54897;SDS011;40800;52.704;6.398;2024-03-23T05:55:04;20.17;;;13.60;;
54897;SDS011;40800;52.704;6.398;2024-03-23T05:57:30;26.63;;;13.27;;
54897;SDS011;40800;52.704;6.398;2024-03-23T05:59:56;18.02;;;12.55;;
54897;SDS011;40800;52.704;6.398;2024-03-23T06:02:22;19.00;;;12.73;;
54897;SDS011;40800;52.704;6.398;2024-03-23T06:04:48;25.80;;;13.25;;
54897;SDS011;40800;52.704;6.398;2024-03-23T06:07:13;21.55;;;12.30;;
54897;SDS011;40800;52.704;6.398;2024-03-23T06:09:40;18.63;;;12.63;;
54897;SDS011;40800;52.704;6.398;2024-03-23T06:12:06;24.23;;;13.52;;
54897;SDS011;40800;52.704;6.398;2024-03-23T06:14:32;19.48;;;13.15;;
54897;SDS011;40800;52.704;6.398;2024-03-23T06:16:58;19.15;;;13.15;;
54897;SDS011;40800;52.704;6.398;2024-03-23T06:19:25;20.52;;;13.85;;
54897;SDS011;40800;52.704;6.398;2024-03-23T06:21:54;23.75;;;13.82;;
54897;SDS011;40800;52.704;6.398;2024-03-23T06:24:23;20.58;;;12.68;;
54897;SDS011;40800;52.704;6.398;2024-03-23T06:26:49;18.55;;;12.38;;
54897;SDS011;40800;52.704;6.398;2024-03-23T06:29:15;18.52;;;12.02;;
54897;SDS011;40800;52.704;6.398;2024-03-23T06:31:40;18.75;;;12.48;;
54897;SDS011;40800;52.704;6.398;2024-03-23T06:34:06;19.27;;;12.63;;
54897;SDS011;40800;52.704;6.398;2024-03-23T06:36:32;19.90;;;12.43;;
54897;SDS011;40800;52.704;6.398;2024-03-23T06:38:58;22.00;;;12.23;;
54897;SDS011;40800;52.704;6.398;2024-03-23T06:41:24;22.33;;;12.30;;
54897;SDS011;40800;52.704;6.398;2024-03-23T06:43:50;21.90;;;11.95;;
54897;SDS011;40800;52.704;6.398;2024-03-23T06:46:15;18.17;;;12.02;;
54897;SDS011;40800;52.704;6.398;2024-03-23T06:48:41;24.27;;;12.63;;
54897;SDS011;40800;52.704;6.398;2024-03-23T06:51:07;21.65;;;12.20;;
54897;SDS011;40800;52.704;6.398;2024-03-23T06:53:32;22.17;;;12.85;;
54897;SDS011;40800;52.704;6.398;2024-03-23T06:55:58;19.45;;;12.57;;
54897;SDS011;40800;52.704;6.398;2024-03-23T06:58:24;18.55;;;12.93;;
54897;SDS011;40800;52.704;6.398;2024-03-23T07:00:50;19.07;;;12.87;;
54897;SDS011;40800;52.704;6.398;2024-03-23T07:03:19;19.08;;;12.68;;
54897;SDS011;40800;52.704;6.398;2024-03-23T07:05:46;20.83;;;12.50;;
54897;SDS011;40800;52.704;6.398;2024-03-23T07:08:11;21.27;;;12.57;;
54897;SDS011;40800;52.704;6.398;2024-03-23T07:10:40;21.77;;;12.80;;
54897;SDS011;40800;52.704;6.398;2024-03-23T07:13:06;19.48;;;12.30;;
54897;SDS011;40800;52.704;6.398;2024-03-23T07:15:32;21.23;;;12.18;;
54897;SDS011;40800;52.704;6.398;2024-03-23T07:17:58;23.55;;;13.20;;
54897;SDS011;40800;52.704;6.398;2024-03-23T07:20:24;20.52;;;13.00;;
54897;SDS011;40800;52.704;6.398;2024-03-23T07:22:50;23.73;;;13.18;;
54897;SDS011;40800;52.704;6.398;2024-03-23T07:25:15;22.55;;;12.93;;
54897;SDS011;40800;52.704;6.398;2024-03-23T07:27:42;21.48;;;13.60;;
54897;SDS011;40800;52.704;6.398;2024-03-23T07:30:07;16.65;;;10.60;;
54897;SDS011;40800;52.704;6.398;2024-03-23T07:32:34;10.02;;;9.13;;
54897;SDS011;40800;52.704;6.398;2024-03-23T07:35:00;10.45;;;8.43;;
54897;SDS011;40800;52.704;6.398;2024-03-23T07:37:26;11.27;;;8.60;;
54897;SDS011;40800;52.704;6.398;2024-03-23T07:39:51;12.02;;;9.35;;
54897;SDS011;40800;52.704;6.398;2024-03-23T07:42:17;10.38;;;9.18;;
54897;SDS011;40800;52.704;6.398;2024-03-23T07:44:43;12.55;;;9.20;;
54897;SDS011;40800;52.704;6.398;2024-03-23T07:47:08;13.27;;;9.40;;
54897;SDS011;40800;52.704;6.398;2024-03-23T07:49:34;12.63;;;9.70;;
54897;SDS011;40800;52.704;6.398;2024-03-23T07:52:00;11.80;;;9.65;;
54897;SDS011;40800;52.704;6.398;2024-03-23T07:54:25;10.95;;;9.00;;
54897;SDS011;40800;52.704;6.398;2024-03-23T07:56:51;10.25;;;9.13;;
54897;SDS011;40800;52.704;6.398;2024-03-23T07:59:16;10.27;;;8.48;;
54897;SDS011;40800;52.704;6.398;2024-03-23T08:01:43;8.60;;;7.80;;
54897;SDS011;40800;52.704;6.398;2024-03-23T08:04:09;8.40;;;7.50;;
54897;SDS011;40800;52.704;6.398;2024-03-23T08:06:34;9.98;;;7.70;;
54897;SDS011;40800;52.704;6.398;2024-03-23T08:09:00;8.30;;;7.50;;
54897;SDS011;40800;52.704;6.398;2024-03-23T08:11:29;11.70;;;7.38;;
54897;SDS011;40800;52.704;6.398;2024-03-23T08:13:56;7.75;;;7.05;;
54897;SDS011;40800;52.704;6.398;2024-03-23T08:16:22;9.35;;;7.50;;
54897;SDS011;40800;52.704;6.398;2024-03-23T08:18:50;8.27;;;7.45;;
54897;SDS011;40800;52.704;6.398;2024-03-23T08:21:16;8.35;;;7.40;;
54897;SDS011;40800;52.704;6.398;2024-03-23T08:23:43;11.02;;;7.43;;
54897;SDS011;40800;52.704;6.398;2024-03-23T08:26:13;8.93;;;7.15;;
54897;SDS011;40800;52.704;6.398;2024-03-23T08:28:40;9.48;;;7.32;;
54897;SDS011;40800;52.704;6.398;2024-03-23T08:31:06;11.55;;;7.40;;
54897;SDS011;40800;52.704;6.398;2024-03-23T08:33:33;8.82;;;7.10;;
54897;SDS011;40800;52.704;6.398;2024-03-23T08:38:29;8.25;;;7.38;;
54897;SDS011;40800;52.704;6.398;2024-03-23T08:41:05;10.80;;;7.40;;
54897;SDS011;40800;52.704;6.398;2024-03-23T08:43:35;9.75;;;7.28;;
54897;SDS011;40800;52.704;6.398;2024-03-23T08:46:06;8.75;;;7.28;;
54897;SDS011;40800;52.704;6.398;2024-03-23T08:48:40;10.40;;;7.40;;
54897;SDS011;40800;52.704;6.398;2024-03-23T08:51:09;9.57;;;7.45;;
54897;SDS011;40800;52.704;6.398;2024-03-23T08:53:35;7.93;;;7.18;;
54897;SDS011;40800;52.704;6.398;2024-03-23T08:56:02;7.38;;;6.70;;
54897;SDS011;40800;52.704;6.398;2024-03-23T08:58:28;11.25;;;6.70;;
54897;SDS011;40800;52.704;6.398;2024-03-23T09:00:55;8.75;;;6.65;;
54897;SDS011;40800;52.704;6.398;2024-03-23T09:03:22;8.02;;;6.38;;
54897;SDS011;40800;52.704;6.398;2024-03-23T09:05:49;9.10;;;7.18;;
54897;SDS011;40800;52.704;6.398;2024-03-23T09:08:15;8.13;;;6.37;;
54897;SDS011;40800;52.704;6.398;2024-03-23T09:10:41;7.97;;;6.57;;
54897;SDS011;40800;52.704;6.398;2024-03-23T09:13:07;8.07;;;6.53;;
54897;SDS011;40800;52.704;6.398;2024-03-23T09:15:36;11.45;;;6.78;;
54897;SDS011;40800;52.704;6.398;2024-03-23T09:18:10;7.50;;;6.80;;
54897;SDS011;40800;52.704;6.398;2024-03-23T09:20:36;10.90;;;6.90;;
54897;SDS011;40800;52.704;6.398;2024-03-23T09:23:01;10.13;;;6.80;;
54897;SDS011;40800;52.704;6.398;2024-03-23T09:25:27;7.40;;;6.65;;
54897;SDS011;40800;52.704;6.398;2024-03-23T09:27:53;9.13;;;6.43;;
54897;SDS011;40800;52.704;6.398;2024-03-23T09:30:18;10.90;;;6.25;;
54897;SDS011;40800;52.704;6.398;2024-03-23T09:32:45;9.82;;;6.60;;
54897;SDS011;40800;52.704;6.398;2024-03-23T09:35:10;10.20;;;6.70;;
54897;SDS011;40800;52.704;6.398;2024-03-23T09:37:37;12.20;;;6.53;;
54897;SDS011;40800;52.704;6.398;2024-03-23T09:40:05;8.90;;;6.20;;
54897;SDS011;40800;52.704;6.398;2024-03-23T09:42:40;10.02;;;6.00;;
54897;SDS011;40800;52.704;6.398;2024-03-23T09:45:16;10.07;;;6.07;;
54897;SDS011;40800;52.704;6.398;2024-03-23T09:47:51;8.60;;;5.40;;
54897;SDS011;40800;52.704;6.398;2024-03-23T09:50:17;9.38;;;5.00;;
54897;SDS011;40800;52.704;6.398;2024-03-23T09:52:43;10.63;;;5.45;;
54897;SDS011;40800;52.704;6.398;2024-03-23T09:55:10;8.48;;;5.15;;
54897;SDS011;40800;52.704;6.398;2024-03-23T09:57:36;9.05;;;5.25;;
54897;SDS011;40800;52.704;6.398;2024-03-23T10:00:02;9.90;;;4.70;;
54897;SDS011;40800;52.704;6.398;2024-03-23T10:02:28;6.07;;;4.35;;
54897;SDS011;40800;52.704;6.398;2024-03-23T10:04:54;4.47;;;3.63;;
54897;SDS011;40800;52.704;6.398;2024-03-23T10:07:20;6.10;;;4.20;;
54897;SDS011;40800;52.704;6.398;2024-03-23T10:09:47;6.57;;;4.40;;
54897;SDS011;40800;52.704;6.398;2024-03-23T10:12:14;6.07;;;4.85;;
54897;SDS011;40800;52.704;6.398;2024-03-23T10:14:40;9.05;;;4.80;;
54897;SDS011;40800;52.704;6.398;2024-03-23T10:17:13;7.93;;;4.72;;
54897;SDS011;40800;52.704;6.398;2024-03-23T10:19:45;7.78;;;5.00;;
54897;SDS011;40800;52.704;6.398;2024-03-23T10:22:15;6.43;;;5.22;;
54897;SDS011;40800;52.704;6.398;2024-03-23T10:24:44;10.05;;;5.82;;
54897;SDS011;40800;52.704;6.398;2024-03-23T10:27:14;8.18;;;5.43;;
54897;SDS011;40800;52.704;6.398;2024-03-23T10:29:41;11.80;;;6.30;;
54897;SDS011;40800;52.704;6.398;2024-03-23T10:32:16;10.77;;;5.68;;
54897;SDS011;40800;52.704;6.398;2024-03-23T10:34:43;12.30;;;6.10;;
54897;SDS011;40800;52.704;6.398;2024-03-23T10:37:09;14.40;;;6.45;;
54897;SDS011;40800;52.704;6.398;2024-03-23T10:39:36;10.47;;;5.80;;
54897;SDS011;40800;52.704;6.398;2024-03-23T10:42:07;11.60;;;6.32;;
54897;SDS011;40800;52.704;6.398;2024-03-23T10:44:35;12.40;;;6.45;;
54897;SDS011;40800;52.704;6.398;2024-03-23T10:47:01;13.98;;;6.55;;
54897;SDS011;40800;52.704;6.398;2024-03-23T10:49:34;13.02;;;6.47;;
54897;SDS011;40800;52.704;6.398;2024-03-23T10:54:27;8.27;;;5.53;;
54897;SDS011;40800;52.704;6.398;2024-03-23T10:59:37;11.35;;;6.05;;
54897;SDS011;40800;52.704;6.398;2024-03-23T11:02:04;9.40;;;5.35;;
54897;SDS011;40800;52.704;6.398;2024-03-23T11:04:33;9.32;;;4.55;;
54897;SDS011;40800;52.704;6.398;2024-03-23T11:07:01;9.57;;;4.30;;
54897;SDS011;40800;52.704;6.398;2024-03-23T11:09:40;9.07;;;4.18;;
54897;SDS011;40800;52.704;6.398;2024-03-23T11:14:50;8.30;;;4.45;;
54897;SDS011;40800;52.704;6.398;2024-03-23T11:17:23;11.30;;;4.68;;
54897;SDS011;40800;52.704;6.398;2024-03-23T11:19:53;4.00;;;3.30;;
54897;SDS011;40800;52.704;6.398;2024-03-23T11:27:46;5.75;;;3.08;;
54897;SDS011;40800;52.704;6.398;2024-03-23T11:32:48;8.70;;;4.07;;
54897;SDS011;40800;52.704;6.398;2024-03-23T11:35:24;8.95;;;3.72;;
54897;SDS011;40800;52.704;6.398;2024-03-23T11:38:03;9.60;;;4.20;;
54897;SDS011;40800;52.704;6.398;2024-03-23T11:40:29;11.98;;;5.43;;
54897;SDS011;40800;52.704;6.398;2024-03-23T11:43:01;9.40;;;4.88;;
54897;SDS011;40800;52.704;6.398;2024-03-23T11:45:28;9.18;;;4.32;;
54897;SDS011;40800;52.704;6.398;2024-03-23T11:48:04;9.07;;;4.40;;
54897;SDS011;40800;52.704;6.398;2024-03-23T11:50:31;10.30;;;4.90;;
54897;SDS011;40800;52.704;6.398;2024-03-23T11:53:09;13.02;;;5.43;;
54897;SDS011;40800;52.704;6.398;2024-03-23T11:55:39;11.23;;;7.05;;
54897;SDS011;40800;52.704;6.398;2024-03-23T11:58:11;15.23;;;7.10;;
54897;SDS011;40800;52.704;6.398;2024-03-23T12:00:37;9.88;;;7.03;;
54897;SDS011;40800;52.704;6.398;2024-03-23T12:03:04;9.05;;;6.60;;
54897;SDS011;40800;52.704;6.398;2024-03-23T12:05:31;8.88;;;6.32;;
54897;SDS011;40800;52.704;6.398;2024-03-23T12:08:16;12.50;;;7.90;;
54897;SDS011;40800;52.704;6.398;2024-03-23T12:10:46;10.68;;;8.80;;
54897;SDS011;40800;52.704;6.398;2024-03-23T12:13:34;12.18;;;10.82;;
54897;SDS011;40800;52.704;6.398;2024-03-23T12:16:09;9.95;;;8.68;;
54897;SDS011;40800;52.704;6.398;2024-03-23T12:18:39;8.90;;;7.20;;
54897;SDS011;40800;52.704;6.398;2024-03-23T12:21:06;10.10;;;7.07;;
54897;SDS011;40800;52.704;6.398;2024-03-23T12:23:32;9.57;;;6.90;;
54897;SDS011;40800;52.704;6.398;2024-03-23T12:25:58;8.00;;;5.97;;
54897;SDS011;40800;52.704;6.398;2024-03-23T12:28:24;9.88;;;6.30;;
54897;SDS011;40800;52.704;6.398;2024-03-23T12:30:50;7.75;;;5.80;;
54897;SDS011;40800;52.704;6.398;2024-03-23T12:33:18;6.68;;;5.20;;
54897;SDS011;40800;52.704;6.398;2024-03-23T12:35:43;7.10;;;4.43;;
54897;SDS011;40800;52.704;6.398;2024-03-23T12:38:09;6.43;;;4.57;;
54897;SDS011;40800;52.704;6.398;2024-03-23T12:40:34;6.10;;;4.70;;
54897;SDS011;40800;52.704;6.398;2024-03-23T12:43:00;9.48;;;5.03;;
54897;SDS011;40800;52.704;6.398;2024-03-23T12:45:26;8.45;;;5.60;;
54897;SDS011;40800;52.704;6.398;2024-03-23T12:47:51;8.25;;;5.68;;
54897;SDS011;40800;52.704;6.398;2024-03-23T12:50:20;9.90;;;6.18;;
54897;SDS011;40800;52.704;6.398;2024-03-23T12:52:46;9.98;;;6.30;;
54897;SDS011;40800;52.704;6.398;2024-03-23T12:55:12;10.30;;;6.43;;
54897;SDS011;40800;52.704;6.398;2024-03-23T12:57:38;9.75;;;7.15;;
54897;SDS011;40800;52.704;6.398;2024-03-23T13:00:03;12.15;;;7.30;;
54897;SDS011;40800;52.704;6.398;2024-03-23T13:02:30;11.43;;;7.78;;
54897;SDS011;40800;52.704;6.398;2024-03-23T13:04:55;11.88;;;7.50;;
54897;SDS011;40800;52.704;6.398;2024-03-23T13:07:22;11.75;;;8.07;;
54897;SDS011;40800;52.704;6.398;2024-03-23T13:09:51;11.95;;;8.18;;
54897;SDS011;40800;52.704;6.398;2024-03-23T13:12:18;12.35;;;7.55;;
54897;SDS011;40800;52.704;6.398;2024-03-23T13:14:47;9.50;;;7.20;;
54897;SDS011;40800;52.704;6.398;2024-03-23T13:17:12;10.20;;;7.28;;
54897;SDS011;40800;52.704;6.398;2024-03-23T13:19:38;10.93;;;6.43;;
54897;SDS011;40800;52.704;6.398;2024-03-23T13:22:04;11.68;;;7.00;;
54897;SDS011;40800;52.704;6.398;2024-03-23T13:24:31;10.18;;;6.53;;
54897;SDS011;40800;52.704;6.398;2024-03-23T13:26:57;12.70;;;6.32;;
54897;SDS011;40800;52.704;6.398;2024-03-23T13:29:23;16.90;;;6.40;;
54897;SDS011;40800;52.704;6.398;2024-03-23T13:31:50;13.55;;;6.40;;
54897;SDS011;40800;52.704;6.398;2024-03-23T13:34:17;14.48;;;6.53;;
54897;SDS011;40800;52.704;6.398;2024-03-23T13:36:46;17.17;;;6.78;;
54897;SDS011;40800;52.704;6.398;2024-03-23T13:39:12;14.40;;;6.68;;
54897;SDS011;40800;52.704;6.398;2024-03-23T13:41:42;18.15;;;7.28;;
54897;SDS011;40800;52.704;6.398;2024-03-23T13:44:10;9.23;;;5.22;;
54897;SDS011;40800;52.704;6.398;2024-03-23T13:46:36;8.57;;;4.97;;
54897;SDS011;40800;52.704;6.398;2024-03-23T13:49:03;8.60;;;5.15;;
54897;SDS011;40800;52.704;6.398;2024-03-23T13:51:29;9.50;;;5.78;;
54897;SDS011;40800;52.704;6.398;2024-03-23T13:53:55;14.02;;;6.55;;
54897;SDS011;40800;52.704;6.398;2024-03-23T13:56:24;11.77;;;6.20;;
54897;SDS011;40800;52.704;6.398;2024-03-23T13:58:50;13.65;;;6.30;;
54897;SDS011;40800;52.704;6.398;2024-03-23T14:01:16;14.00;;;5.80;;
54897;SDS011;40800;52.704;6.398;2024-03-23T14:03:42;11.80;;;5.78;;
54897;SDS011;40800;52.704;6.398;2024-03-23T14:06:08;10.68;;;5.53;;
54897;SDS011;40800;52.704;6.398;2024-03-23T14:08:38;11.30;;;5.93;;
54897;SDS011;40800;52.704;6.398;2024-03-23T14:11:08;13.02;;;5.63;;
54897;SDS011;40800;52.704;6.398;2024-03-23T14:13:35;12.25;;;6.00;;
54897;SDS011;40800;52.704;6.398;2024-03-23T14:16:01;10.77;;;5.80;;
54897;SDS011;40800;52.704;6.398;2024-03-23T14:18:27;15.10;;;6.03;;
54897;SDS011;40800;52.704;6.398;2024-03-23T14:20:56;14.77;;;6.70;;
54897;SDS011;40800;52.704;6.398;2024-03-23T14:23:24;11.65;;;5.95;;
54897;SDS011;40800;52.704;6.398;2024-03-23T14:25:52;14.88;;;7.20;;
54897;SDS011;40800;52.704;6.398;2024-03-23T14:28:18;13.07;;;7.05;;
54897;SDS011;40800;52.704;6.398;2024-03-23T14:30:44;16.88;;;8.18;;
54897;SDS011;40800;52.704;6.398;2024-03-23T14:33:10;11.35;;;7.20;;
54897;SDS011;40800;52.704;6.398;2024-03-23T14:35:35;14.35;;;7.88;;
54897;SDS011;40800;52.704;6.398;2024-03-23T14:38:01;10.82;;;7.78;;
54897;SDS011;40800;52.704;6.398;2024-03-23T14:40:27;15.95;;;7.88;;
54897;SDS011;40800;52.704;6.398;2024-03-23T14:42:53;15.23;;;7.43;;
54897;SDS011;40800;52.704;6.398;2024-03-23T14:45:20;15.07;;;6.80;;
54897;SDS011;40800;52.704;6.398;2024-03-23T14:47:46;12.63;;;6.03;;
54897;SDS011;40800;52.704;6.398;2024-03-23T14:50:12;11.15;;;6.00;;
54897;SDS011;40800;52.704;6.398;2024-03-23T14:52:40;14.50;;;6.50;;
54897;SDS011;40800;52.704;6.398;2024-03-23T14:55:07;14.60;;;6.38;;
54897;SDS011;40800;52.704;6.398;2024-03-23T14:57:34;13.45;;;6.40;;
54897;SDS011;40800;52.704;6.398;2024-03-23T15:00:00;12.35;;;6.05;;
54897;SDS011;40800;52.704;6.398;2024-03-23T15:02:25;16.60;;;6.80;;
54897;SDS011;40800;52.704;6.398;2024-03-23T15:04:53;14.65;;;6.25;;
54897;SDS011;40800;52.704;6.398;2024-03-23T15:07:19;13.05;;;5.40;;
54897;SDS011;40800;52.704;6.398;2024-03-23T15:09:44;11.10;;;5.28;;
54897;SDS011;40800;52.704;6.398;2024-03-23T15:12:10;12.73;;;5.45;;
54897;SDS011;40800;52.704;6.398;2024-03-23T15:14:36;12.80;;;5.63;;
54897;SDS011;40800;52.704;6.398;2024-03-23T15:17:02;14.43;;;5.00;;
54897;SDS011;40800;52.704;6.398;2024-03-23T15:19:32;15.05;;;4.68;;
54897;SDS011;40800;52.704;6.398;2024-03-23T15:21:57;14.80;;;4.85;;
54897;SDS011;40800;52.704;6.398;2024-03-23T15:24:23;13.50;;;4.00;;
54897;SDS011;40800;52.704;6.398;2024-03-23T15:26:49;13.52;;;5.15;;
54897;SDS011;40800;52.704;6.398;2024-03-23T15:29:17;17.38;;;6.95;;
54897;SDS011;40800;52.704;6.398;2024-03-23T15:31:43;13.90;;;7.22;;
54897;SDS011;40800;52.704;6.398;2024-03-23T15:34:08;13.43;;;6.80;;
54897;SDS011;40800;52.704;6.398;2024-03-23T15:36:37;12.43;;;6.50;;
54897;SDS011;40800;52.704;6.398;2024-03-23T15:39:05;11.90;;;5.63;;